Ocean Highway — H3IE — position and weather

sailwx.info

Track history (hours):
 
Tides and Currents Weather Stations Pressure Air Temp Water Temp Dewpoint Dewpoint Depression Visibility Wind Speed Wind Dir Waves Ship Positions

Ocean Highway

Last reported at 2015-Jul-21 07:21 UTC. Time now 2015-Jul-31 03:03 UTC.
Position N 33°59' E 134°56'.
Warning: this ship's position is 9 days out of date.

Length 179.1 m; beam 32.2 m.

Type: Cargo ship. MMSI: 353951000.

Date/timePositionNaut miles runAvg speedWind from/ knotsBaromVisibWave heightAir tempDewpointWater temp
2015-Jul-21 07:21N 33°59' E 134°56'1214.9
2015-Jul-21 06:33N 34°10' E 134°57'1514.0
2015-Jul-21 05:31N 34°24' E 135°02'1616.5
2015-Jul-21 04:33N 34°35' E 135°15'7 6.5
2015-Jul-21 03:32N 34°42' E 135°17'0 0.0
2015-Jul-21 02:32N 34°42' E 135°17'0 0.0
2015-Jul-21 01:32N 34°42' E 135°17'0 0.0
2015-Jul-21 00:32N 34°42' E 135°17'0 0.0
2015-Jul-20 23:32N 34°42' E 135°17'0 0.0
2015-Jul-20 22:32N 34°42' E 135°17'0 0.0
2015-Jul-20 21:32N 34°42' E 135°17'0 0.0
2015-Jul-20 20:32N 34°42' E 135°17'0 0.0
2015-Jul-20 19:32N 34°42' E 135°17'0 0.0
2015-Jul-20 18:32N 34°42' E 135°17'0 0.0
2015-Jul-20 17:26N 34°42' E 135°17'0 0.0
2015-Jul-20 16:32N 34°42' E 135°17'0 0.0
2015-Jul-20 15:32N 34°42' E 135°17'0 0.0
2015-Jul-20 14:32N 34°42' E 135°17'0 0.0
2015-Jul-20 13:32N 34°42' E 135°17'0 0.0
2015-Jul-20 12:32N 34°42' E 135°17'0 0.0
2015-Jul-20 11:25N 34°42' E 135°17'0 0.0
2015-Jul-20 10:31N 34°42' E 135°17'0 0.0
2015-Jul-20 09:19N 34°42' E 135°17'0 0.0
2015-Jul-20 08:31N 34°42' E 135°17'0 0.0
2015-Jul-20 07:31N 34°42' E 135°17'0 0.0
2015-Jul-20 06:31N 34°42' E 135°17'0 0.0
2015-Jul-20 05:31N 34°42' E 135°17'0 0.0
2015-Jul-20 04:31N 34°42' E 135°17'0 0.0
2015-Jul-20 03:31N 34°42' E 135°17'0 0.1
2015-Jul-20 02:34N 34°42' E 135°17'5 4.7
2015-Jul-20 01:34N 34°37' E 135°17'1716.5
2015-Jul-20 00:33N 34°24' E 135°05'1515.2
2015-Jul-19 23:33N 34°10' E 135°00'39 4.3
2015-Jul-19 14:32N 33°31' E 134°53'253 9.3
2015-Jul-18 11:24N 34°58' E 139°41'1214.8
2015-Jul-18 10:33N 35°09' E 139°45'1010.2
2015-Jul-18 09:34N 35°20' E 139°43'8 7.5
2015-Jul-18 08:31N 35°27' E 139°41'0 0.0
2015-Jul-18 07:33N 35°27' E 139°41'0 0.0
2015-Jul-18 06:33N 35°27' E 139°41'0 0.0
2015-Jul-18 05:34N 35°27' E 139°41'0 0.0
2015-Jul-18 04:33N 35°27' E 139°41'0 0.0
2015-Jul-18 03:34N 35°27' E 139°41'0 0.0
2015-Jul-18 02:34N 35°27' E 139°41'0 0.0
2015-Jul-18 01:34N 35°27' E 139°41'0 0.0
2015-Jul-18 00:33N 35°27' E 139°41'0 0.0
2015-Jul-17 23:33N 35°27' E 139°41'0 0.0
2015-Jul-17 22:33N 35°27' E 139°41'1 1.2
2015-Jul-17 21:34N 35°26' E 139°42'8 8.0
2015-Jul-17 20:33N 35°19' E 139°44'1110.6
2015-Jul-17 19:33N 35°08' E 139°46'1615.8
2015-Jul-17 18:33N 34°53' E 139°40'  
2015-Jul-11 14:31N 34°02' E 130°49'  
Track history (hours):
 
Tides and Currents Weather Stations Pressure Air Temp Water Temp Dewpoint Dewpoint Depression Visibility Wind Speed Wind Dir Waves Ship Positions

Ocean Highway

Last reported at 2015-Jul-21 07:21 UTC. Time now 2015-Jul-31 03:03 UTC.
Position N 33°59' E 134°56'.
Warning: this ship's position is 9 days out of date.

Length 179.1 m; beam 32.2 m.

Type: Cargo ship. MMSI: 353951000.

Date/timePositionNaut miles runAvg speedWind from/ knotsBaromVisibWave heightAir tempDewpointWater temp
2015-Jul-21 07:21N 33°59' E 134°56'1214.9
2015-Jul-21 06:33N 34°10' E 134°57'1514.0
2015-Jul-21 05:31N 34°24' E 135°02'1616.5
2015-Jul-21 04:33N 34°35' E 135°15'7 6.5
2015-Jul-21 03:32N 34°42' E 135°17'0 0.0
2015-Jul-21 02:32N 34°42' E 135°17'0 0.0
2015-Jul-21 01:32N 34°42' E 135°17'0 0.0
2015-Jul-21 00:32N 34°42' E 135°17'0 0.0
2015-Jul-20 23:32N 34°42' E 135°17'0 0.0
2015-Jul-20 22:32N 34°42' E 135°17'0 0.0
2015-Jul-20 21:32N 34°42' E 135°17'0 0.0
2015-Jul-20 20:32N 34°42' E 135°17'0 0.0
2015-Jul-20 19:32N 34°42' E 135°17'0 0.0
2015-Jul-20 18:32N 34°42' E 135°17'0 0.0
2015-Jul-20 17:26N 34°42' E 135°17'0 0.0
2015-Jul-20 16:32N 34°42' E 135°17'0 0.0
2015-Jul-20 15:32N 34°42' E 135°17'0 0.0
2015-Jul-20 14:32N 34°42' E 135°17'0 0.0
2015-Jul-20 13:32N 34°42' E 135°17'0 0.0
2015-Jul-20 12:32N 34°42' E 135°17'0 0.0
2015-Jul-20 11:25N 34°42' E 135°17'0 0.0
2015-Jul-20 10:31N 34°42' E 135°17'0 0.0
2015-Jul-20 09:19N 34°42' E 135°17'0 0.0
2015-Jul-20 08:31N 34°42' E 135°17'0 0.0
2015-Jul-20 07:31N 34°42' E 135°17'0 0.0
2015-Jul-20 06:31N 34°42' E 135°17'0 0.0
2015-Jul-20 05:31N 34°42' E 135°17'0 0.0
2015-Jul-20 04:31N 34°42' E 135°17'0 0.0
2015-Jul-20 03:31N 34°42' E 135°17'0 0.1
2015-Jul-20 02:34N 34°42' E 135°17'5 4.7
2015-Jul-20 01:34N 34°37' E 135°17'1716.5
2015-Jul-20 00:33N 34°24' E 135°05'1515.2
2015-Jul-19 23:33N 34°10' E 135°00'39 4.3
2015-Jul-19 14:32N 33°31' E 134°53'253 9.3
2015-Jul-18 11:24N 34°58' E 139°41'1214.8
2015-Jul-18 10:33N 35°09' E 139°45'1010.2
2015-Jul-18 09:34N 35°20' E 139°43'8 7.5
2015-Jul-18 08:31N 35°27' E 139°41'0 0.0
2015-Jul-18 07:33N 35°27' E 139°41'0 0.0
2015-Jul-18 06:33N 35°27' E 139°41'0 0.0
2015-Jul-18 05:34N 35°27' E 139°41'0 0.0
2015-Jul-18 04:33N 35°27' E 139°41'0 0.0
2015-Jul-18 03:34N 35°27' E 139°41'0 0.0
2015-Jul-18 02:34N 35°27' E 139°41'0 0.0
2015-Jul-18 01:34N 35°27' E 139°41'0 0.0
2015-Jul-18 00:33N 35°27' E 139°41'0 0.0
2015-Jul-17 23:33N 35°27' E 139°41'0 0.0
2015-Jul-17 22:33N 35°27' E 139°41'1 1.2
2015-Jul-17 21:34N 35°26' E 139°42'8 8.0
2015-Jul-17 20:33N 35°19' E 139°44'1110.6
2015-Jul-17 19:33N 35°08' E 139°46'1615.8
2015-Jul-17 18:33N 34°53' E 139°40'  
2015-Jul-11 14:31N 34°02' E 130°49'  

Dump ship's entire track history